Aérodrome :
LOGIN :

S'inscrire | Disclaimer

   EN    FR    IT 

 










Légende :    VFR   VFR Marginal   IFR   IFR Intensif   IFR Très Intensif
Visi : 
Plafond : 
>= 8 km
>= 3000ft
5 à 8 km
1000 à 3000 ft
1500m à 5 km
500 à 1000 ft
800 à 1500m
200 à 500 ft
< 800m
< 200 ft
Symboles :   Orages  Brouillard  Fortes neiges  Fortes précipitations  Vent > 20 kt
SIGMETs :   Divers  Orages  Givrage  Turbulence  Onde Orograph.  Cendres Volcan.







- Altitude de l'aérodrome : 26 ft
- Code IATA : BIA
- Voir les cartes d'approche


LFKB - Bastia

DERNIER METAR :
  • 241200Z AUTO 10007KT 050V170 9999 ///CB 26/16 Q1016 NOSIG

METARs EXPIRÉS :
  • 241130Z AUTO 13007KT 070V170 CAVOK 26/17 Q1016 TEMPO FEW025CB
  • 241100Z AUTO 13007KT 090V170 9999 ///CB 26/17 Q1017 NOSIG
  • 241030Z AUTO 13008KT 090V170 CAVOK 25/17 Q1017 TEMPO FEW025CB
  • 241000Z AUTO 13007KT 090V160 CAVOK 26/17 Q1017 TEMPO SCT030TCU
  • 240930Z AUTO 11007KT 080V150 9999 FEW031 25/17 Q1017 TEMPO SCT030TCU

TAF AMD TAF LFKB
Valide du 24 à 11h jusqu'au 25 à 09h UTC


241117Z 2411/2509 12008KT 9999 FEW025 SCT033 BKN130
TEMPO 2411/2416 SCT030TCU
PROB30
TEMPO 2411/2415 FEW025CB
BECMG 2418/2421 VRB05KT TX26/2413Z TN18/2504Z
ATIS : +33 4 95 59 19 40
Pas de NOTAMs connus pour ce terrain.
1 SIGMET publié pour la FIR Marseille (LFMM) :
 
Orages noyés dans la masse
LFMM SIGMET 1 VALID 241220/241500 LFPW
LFMM MARSEILLE FIR/UIR EMBD TS FCST WI N4130 E00845 - N4245 E00845 - N4245 E00930 - N4130 E00915 - N4130 E00845 TOP FL350 STNR NC=



MET'MAP, la Météo Aéronautique d'un coup d'oeil ! - Copyright ORBIFLY Décembre 2007 - Disclaimer

ORBIFLY MET'MAP TEAM :

Programmation & Développement : Alexandra Zaïnal
Conception & Développement : Baudouin d'Aumeries
Co-Programmation & Développement : Marc-Olivier Méhu
Soutien technique & logistique : Manuel Goepfert

Contact : metmap@orbifly.com




SOURCES & CREDITS :

   NOAA